createdAt,value
2023-05-06T00:01:46.227Z,22.40
2023-05-06T00:04:15.305Z,15.23
2023-05-06T00:06:43.919Z,16.23
2023-05-06T00:09:11.502Z,13.38
2023-05-06T00:11:38.946Z,19.50
2023-05-06T00:14:06.633Z,19.02
2023-05-06T00:16:35.479Z,15.38
2023-05-06T00:19:02.990Z,15.52
2023-05-06T00:21:30.503Z,16.38
2023-05-06T00:23:58.013Z,15.70
2023-05-06T00:26:25.567Z,15.43
2023-05-06T00:28:53.047Z,17.25
2023-05-06T00:31:20.494Z,15.77
2023-05-06T00:33:49.374Z,14.63
2023-05-06T00:36:17.459Z,11.77
2023-05-06T00:38:44.941Z,15.77
2023-05-06T00:41:12.424Z,13.38
2023-05-06T00:43:39.936Z,16.50
2023-05-06T00:46:12.079Z,17.10
2023-05-06T00:48:40.063Z,19.40
2023-05-06T00:51:09.368Z,14.27
2023-05-06T00:53:36.886Z,18.30
2023-05-06T00:56:04.731Z,12.50
2023-05-06T00:58:32.180Z,18.88
2023-05-06T01:00:59.696Z,15.88
2023-05-06T01:03:27.544Z,15.85
2023-05-06T01:06:01.273Z,18.73
2023-05-06T01:08:33.605Z,15.32
2023-05-06T01:11:06.826Z,14.52
2023-05-06T01:13:39.724Z,17.98
2023-05-06T01:16:08.349Z,12.85
2023-05-06T01:18:36.960Z,17.88
2023-05-06T01:21:06.048Z,19.35
2023-05-06T01:23:52.671Z,14.10
2023-05-06T01:26:20.126Z,15.07
2023-05-06T01:28:47.536Z,13.07
2023-05-06T01:31:18.839Z,15.88
2023-05-06T01:33:52.131Z,18.92
2023-05-06T01:36:24.184Z,13.63
2023-05-06T01:39:00.712Z,16.98
2023-05-06T01:41:28.697Z,15.70
2023-05-06T01:43:56.324Z,17.77
2023-05-06T01:46:25.377Z,15.35
2023-05-06T01:48:54.838Z,18.77
2023-05-06T01:51:22.689Z,16.38
2023-05-06T01:53:50.104Z,12.93
2023-05-06T01:56:18.948Z,14.60
2023-05-06T01:58:46.475Z,13.40
2023-05-06T02:01:13.946Z,18.63
2023-05-06T02:03:41.526Z,16.55
2023-05-06T02:06:09.209Z,16.58
2023-05-06T02:08:36.714Z,20.63
2023-05-06T02:11:04.232Z,13.15
2023-05-06T02:13:33.062Z,15.02
2023-05-06T02:16:00.629Z,14.25
2023-05-06T02:18:28.095Z,16.63
2023-05-06T02:20:55.621Z,14.50
2023-05-06T02:23:23.078Z,17.92
2023-05-06T02:25:51.841Z,16.73
2023-05-06T02:28:19.382Z,20.17
2023-05-06T02:30:48.168Z,16.33
2023-05-06T02:33:15.735Z,17.20
2023-05-06T02:35:43.213Z,14.32
2023-05-06T02:38:10.699Z,15.65
2023-05-06T02:40:38.132Z,15.82
2023-05-06T02:43:05.544Z,21.65
2023-05-06T02:45:33.045Z,15.05
2023-05-06T02:48:02.049Z,14.65
2023-05-06T02:50:29.563Z,15.48
2023-05-06T02:52:57.037Z,16.48
2023-05-06T02:55:24.822Z,13.75
2023-05-06T02:57:52.388Z,16.80
2023-05-06T03:00:20.371Z,20.60
2023-05-06T03:02:48.008Z,18.25
2023-05-06T03:05:17.062Z,17.08
2023-05-06T03:07:44.577Z,15.30
2023-05-06T03:10:12.264Z,17.05
2023-05-06T03:12:39.927Z,14.70
2023-05-06T03:15:08.446Z,15.75
2023-05-06T03:17:36.256Z,20.83
2023-05-06T03:20:03.867Z,16.50
2023-05-06T03:22:32.724Z,16.80
2023-05-06T03:25:00.200Z,20.80
2023-05-06T03:27:27.632Z,14.70
2023-05-06T03:29:55.180Z,16.92
2023-05-06T03:32:22.748Z,17.17
2023-05-06T03:34:50.227Z,13.27
2023-05-06T03:37:17.721Z,12.38
2023-05-06T03:39:46.486Z,14.50
2023-05-06T03:42:14.051Z,17.20
2023-05-06T03:44:41.612Z,18.10
2023-05-06T03:47:09.081Z,19.30
2023-05-06T03:49:36.538Z,20.42
2023-05-06T03:52:04.155Z,15.60
2023-05-06T03:54:31.807Z,17.60
2023-05-06T03:57:00.564Z,21.83
2023-05-06T03:59:28.105Z,15.68
2023-05-06T04:01:56.249Z,18.92
2023-05-06T04:04:24.018Z,18.10
2023-05-06T04:06:52.714Z,14.00
2023-05-06T04:09:20.271Z,16.85
2023-05-06T04:11:47.801Z,18.20
2023-05-06T04:14:16.585Z,19.70
2023-05-06T04:16:44.110Z,21.48
2023-05-06T04:19:11.721Z,16.77
2023-05-06T04:21:39.151Z,17.35
2023-05-06T04:24:07.653Z,20.08
2023-05-06T04:26:35.372Z,14.45
2023-05-06T04:29:02.834Z,17.02
2023-05-06T04:31:34.872Z,16.73
2023-05-06T04:34:02.680Z,17.17
2023-05-06T04:36:30.689Z,19.17
2023-05-06T04:38:58.327Z,14.10
2023-05-06T04:41:25.992Z,16.65
2023-05-06T04:43:53.525Z,19.48
2023-05-06T04:46:21.848Z,18.05
2023-05-06T04:48:50.827Z,22.48
2023-05-06T04:51:18.316Z,22.35
2023-05-06T04:53:46.695Z,18.25
2023-05-06T04:56:14.445Z,19.73
2023-05-06T04:58:41.911Z,16.75
2023-05-06T05:01:10.537Z,20.20
2023-05-06T05:03:38.046Z,17.60
2023-05-06T05:06:07.577Z,14.23
2023-05-06T05:08:35.024Z,15.38
2023-05-06T05:11:02.502Z,15.95
2023-05-06T05:13:29.953Z,14.00
2023-05-06T05:15:57.571Z,14.80
2023-05-06T05:18:25.325Z,19.55
2023-05-06T05:20:52.839Z,16.40
2023-05-06T05:23:21.675Z,21.45
2023-05-06T05:25:49.195Z,18.52
2023-05-06T05:28:16.652Z,18.15
2023-05-06T05:30:44.153Z,16.17
2023-05-06T05:33:11.894Z,13.75
2023-05-06T05:35:39.381Z,15.82
2023-05-06T05:38:06.873Z,16.15
2023-05-06T05:40:36.820Z,16.90
2023-05-06T05:43:04.334Z,15.05
2023-05-06T05:45:31.907Z,15.75
2023-05-06T05:47:59.469Z,13.82
2023-05-06T05:50:27.039Z,20.92
2023-05-06T05:52:54.556Z,15.25
2023-05-06T05:55:22.145Z,16.23
2023-05-06T05:57:50.988Z,17.48
2023-05-06T06:00:19.416Z,17.92
2023-05-06T06:02:47.054Z,12.73
2023-05-06T06:05:14.564Z,20.90
2023-05-06T06:07:42.091Z,16.00
2023-05-06T06:10:09.825Z,17.02
2023-05-06T06:12:37.317Z,18.25
2023-05-06T06:15:07.043Z,15.63
2023-05-06T06:17:34.565Z,19.48
2023-05-06T06:20:02.080Z,20.48
2023-05-06T06:22:29.991Z,19.30
2023-05-06T06:24:57.421Z,20.35
2023-05-06T06:27:24.939Z,20.20
2023-05-06T06:29:52.433Z,16.55
2023-05-06T06:32:21.311Z,15.93
2023-05-06T06:34:48.780Z,18.45
2023-05-06T06:37:16.270Z,15.63
2023-05-06T06:39:43.866Z,16.90
2023-05-06T06:42:11.316Z,17.38
2023-05-06T06:44:38.796Z,21.90
2023-05-06T06:47:06.340Z,18.70
2023-05-06T06:49:35.233Z,21.65
2023-05-06T06:52:02.948Z,21.02
2023-05-06T06:54:30.413Z,17.50
2023-05-06T06:56:57.871Z,15.27
2023-05-06T06:59:25.372Z,18.55
2023-05-06T07:01:52.879Z,16.65
2023-05-06T07:04:20.357Z,17.95
2023-05-06T07:06:49.176Z,20.60
2023-05-06T07:09:16.679Z,21.08
2023-05-06T07:11:44.230Z,19.65
2023-05-06T07:14:11.987Z,17.23
2023-05-06T07:16:39.471Z,18.08
2023-05-06T07:19:07.090Z,16.08
2023-05-06T07:21:34.561Z,21.50
2023-05-06T07:24:03.454Z,18.70
2023-05-06T07:26:30.887Z,16.92
2023-05-06T07:28:58.427Z,19.63
2023-05-06T07:31:25.901Z,18.33
2023-05-06T07:33:53.402Z,21.10
2023-05-06T07:36:20.858Z,21.63
2023-05-06T07:38:48.296Z,18.55
2023-05-06T07:41:17.359Z,19.67
2023-05-06T07:43:44.794Z,18.73
2023-05-06T07:46:12.392Z,17.80
2023-05-06T07:48:39.895Z,17.50
2023-05-06T07:51:07.399Z,16.98
2023-05-06T07:53:35.756Z,16.50
2023-05-06T07:56:03.968Z,20.00
2023-05-06T07:58:33.002Z,14.05
2023-05-06T08:01:00.569Z,19.42
2023-05-06T08:03:28.185Z,15.73
2023-05-06T08:05:55.858Z,19.55
2023-05-06T08:08:23.673Z,21.95
2023-05-06T08:10:51.227Z,18.73
2023-05-06T08:13:18.827Z,17.08
2023-05-06T08:15:47.849Z,16.95
2023-05-06T08:18:22.481Z,17.38
2023-05-06T08:20:51.262Z,18.33
2023-05-06T08:23:18.841Z,17.13
2023-05-06T08:25:46.576Z,15.40
2023-05-06T08:28:14.338Z,20.85
2023-05-06T08:30:41.811Z,15.32
2023-05-06T08:33:10.755Z,19.23
2023-05-06T08:35:38.216Z,18.17
2023-05-06T08:38:05.717Z,15.95
2023-05-06T08:40:33.823Z,17.25
2023-05-06T08:43:02.434Z,17.92
2023-05-06T08:45:30.433Z,15.25
2023-05-06T08:47:57.989Z,16.13
2023-05-06T08:50:26.884Z,15.15
2023-05-06T08:52:54.351Z,17.52
2023-05-06T08:55:23.135Z,17.88
2023-05-06T08:57:51.797Z,17.45
2023-05-06T09:00:19.704Z,17.90
2023-05-06T09:02:47.295Z,18.05
2023-05-06T09:05:14.929Z,15.55
2023-05-06T09:07:43.828Z,17.30
2023-05-06T09:10:14.060Z,20.42
2023-05-06T09:12:41.813Z,17.42
2023-05-06T09:15:11.414Z,17.65
2023-05-06T09:17:39.234Z,17.65
2023-05-06T09:20:09.561Z,16.15
2023-05-06T09:22:38.883Z,20.45
2023-05-06T09:25:08.635Z,18.40
2023-05-06T09:27:37.315Z,16.95
2023-05-06T09:30:06.316Z,18.98
2023-05-06T09:32:35.618Z,18.67
2023-05-06T09:35:04.851Z,22.30
2023-05-06T09:37:32.420Z,20.88
2023-05-06T09:40:01.102Z,19.00
2023-05-06T09:42:31.132Z,19.70
2023-05-06T09:45:01.978Z,21.00
2023-05-06T09:47:34.127Z,23.92
2023-05-06T09:52:29.892Z,20.13
2023-05-06T09:54:58.012Z,25.20
2023-05-06T09:57:25.565Z,19.55
2023-05-06T09:59:55.214Z,17.80
2023-05-06T10:02:24.144Z,18.95
2023-05-06T10:04:52.113Z,19.30
2023-05-06T10:07:22.756Z,18.40
2023-05-06T10:09:51.933Z,17.40
2023-05-06T10:12:20.236Z,18.73
2023-05-06T10:14:48.286Z,19.75
2023-05-06T10:17:19.501Z,17.60
2023-05-06T10:19:47.672Z,15.20
2023-05-06T10:22:18.052Z,15.93
2023-05-06T10:24:48.473Z,17.73
2023-05-06T10:27:19.413Z,23.85
2023-05-06T10:29:47.350Z,19.85
2023-05-06T10:32:23.890Z,16.13
2023-05-06T10:34:55.689Z,16.92
2023-05-06T10:37:25.914Z,15.68
2023-05-06T10:39:54.707Z,14.38
2023-05-06T10:42:27.748Z,17.73
2023-05-06T10:44:59.569Z,15.00
2023-05-06T10:47:27.346Z,17.13
2023-05-06T10:50:21.770Z,14.40
2023-05-06T10:52:52.042Z,13.07
2023-05-06T10:55:26.789Z,13.98
2023-05-06T10:57:56.652Z,13.63
2023-05-06T11:00:24.534Z,14.30
2023-05-06T11:02:57.144Z,14.82
2023-05-06T11:05:26.758Z,12.25
2023-05-06T11:07:54.279Z,12.50
2023-05-06T11:10:33.703Z,13.20
2023-05-06T11:13:21.182Z,14.00
2023-05-06T11:15:50.806Z,15.15
2023-05-06T11:18:43.628Z,14.77
2023-05-06T11:21:38.700Z,16.13
2023-05-06T11:24:10.665Z,11.40
2023-05-06T11:29:06.268Z,12.10
2023-05-06T11:31:40.351Z,14.00
2023-05-06T11:34:10.180Z,13.02
2023-05-06T11:36:47.112Z,14.40
2023-05-06T11:39:14.732Z,14.23
2023-05-06T11:41:42.346Z,13.48
2023-05-06T11:44:12.074Z,11.80
2023-05-06T11:46:39.788Z,11.45
2023-05-06T11:49:07.416Z,13.30
2023-05-06T11:51:34.874Z,11.18
2023-05-06T11:54:08.805Z,11.27
2023-05-06T11:56:47.925Z,11.35
2023-05-06T11:59:15.686Z,12.50
2023-05-06T12:01:44.392Z,9.95
2023-05-06T12:04:13.177Z,10.90
2023-05-06T12:06:41.121Z,11.80
2023-05-06T12:09:12.564Z,17.95
2023-05-06T12:11:43.219Z,8.40
2023-05-06T12:14:12.486Z,8.40
2023-05-06T12:16:40.255Z,7.68
2023-05-06T12:19:07.811Z,9.98
2023-05-06T12:21:39.098Z,10.32
2023-05-06T12:24:07.204Z,8.68
2023-05-06T12:26:49.608Z,8.43
2023-05-06T12:29:18.149Z,8.68
2023-05-06T12:31:47.273Z,13.57
2023-05-06T12:34:16.126Z,8.88
2023-05-06T12:36:45.132Z,11.18
2023-05-06T12:39:13.203Z,11.15
2023-05-06T12:41:42.280Z,8.23
2023-05-06T12:44:39.643Z,8.52
2023-05-06T12:47:08.835Z,8.93
2023-05-06T12:49:47.067Z,9.57
2023-05-06T12:52:14.521Z,10.60
2023-05-06T12:54:41.995Z,11.02
2023-05-06T12:57:09.476Z,10.52
2023-05-06T12:59:38.797Z,7.85
2023-05-06T13:02:07.215Z,8.50
2023-05-06T13:04:34.806Z,9.40
2023-05-06T13:07:02.531Z,10.05
2023-05-06T13:09:30.182Z,8.05
2023-05-06T13:11:57.761Z,9.95
2023-05-06T13:14:25.459Z,10.45
2023-05-06T13:16:54.424Z,10.98
2023-05-06T13:19:32.431Z,11.90
2023-05-06T13:22:00.968Z,10.65
2023-05-06T13:24:28.934Z,10.32
2023-05-06T13:26:57.589Z,10.55
2023-05-06T13:29:25.627Z,13.68
2023-05-06T13:31:54.567Z,8.93
2023-05-06T13:34:22.191Z,11.90
2023-05-06T13:36:49.717Z,12.02
2023-05-06T13:39:17.344Z,10.20
2023-05-06T13:41:47.498Z,8.00
2023-05-06T13:44:14.981Z,11.20
2023-05-06T13:46:44.130Z,11.70
2023-05-06T13:49:15.548Z,11.02
2023-05-06T13:51:43.153Z,8.70
2023-05-06T13:54:10.655Z,11.85
2023-05-06T13:56:38.175Z,10.90
2023-05-06T13:59:05.634Z,9.55
2023-05-06T14:01:33.689Z,9.90
2023-05-06T14:04:01.224Z,10.52
2023-05-06T14:06:30.208Z,10.32
2023-05-06T14:08:57.664Z,8.77
2023-05-06T14:11:25.241Z,10.65
2023-05-06T14:13:52.804Z,6.95
2023-05-06T14:16:20.342Z,6.68
2023-05-06T14:18:47.786Z,7.05
2023-05-06T14:21:15.287Z,8.02
2023-05-06T14:23:44.101Z,6.22
2023-05-06T14:26:11.586Z,7.57
2023-05-06T14:28:39.076Z,7.97
2023-05-06T14:31:06.681Z,11.70
2023-05-06T14:33:34.196Z,9.80
2023-05-06T14:36:03.467Z,10.30
2023-05-06T14:38:31.970Z,7.10
2023-05-06T14:41:01.043Z,10.23
2023-05-06T14:43:28.566Z,7.15
2023-05-06T14:45:56.079Z,8.75
2023-05-06T14:48:25.371Z,8.15
2023-05-06T14:50:53.133Z,6.82
2023-05-06T14:53:20.693Z,9.95
2023-05-06T14:55:48.903Z,5.13
2023-05-06T14:58:21.466Z,7.13
2023-05-06T15:00:50.097Z,6.03
2023-05-06T15:03:18.901Z,7.97
2023-05-06T15:05:48.984Z,7.53
2023-05-06T15:08:16.552Z,6.32
2023-05-06T15:10:44.438Z,7.80
2023-05-06T15:13:11.934Z,6.32
2023-05-06T15:15:40.781Z,6.72
2023-05-06T15:18:08.239Z,4.80
2023-05-06T15:20:36.097Z,9.23
2023-05-06T15:23:03.572Z,5.63
2023-05-06T15:25:36.023Z,5.10
2023-05-06T15:28:05.585Z,6.93
2023-05-06T15:30:33.109Z,6.05
2023-05-06T15:33:03.001Z,8.82
2023-05-06T15:35:31.363Z,6.57
2023-05-06T15:37:59.482Z,6.13
2023-05-06T15:40:27.408Z,5.28
2023-05-06T15:42:55.146Z,6.30
2023-05-06T15:45:23.187Z,7.70
2023-05-06T15:47:50.797Z,6.13
2023-05-06T15:50:32.698Z,7.07
2023-05-06T15:53:02.335Z,4.63
2023-05-06T15:55:30.183Z,5.15
2023-05-06T15:58:00.619Z,6.15
2023-05-06T16:00:28.550Z,5.82
2023-05-06T16:02:57.266Z,5.95
2023-05-06T16:05:26.213Z,8.07
2023-05-06T16:07:55.787Z,9.40
2023-05-06T16:10:23.453Z,6.97
2023-05-06T16:12:50.992Z,5.97
2023-05-06T16:15:18.677Z,6.57
2023-05-06T16:17:46.256Z,8.95
2023-05-06T16:20:13.982Z,9.02
2023-05-06T16:22:42.871Z,5.88
2023-05-06T16:25:10.670Z,7.25
2023-05-06T16:27:38.107Z,9.65
2023-05-06T16:30:06.543Z,6.40
2023-05-06T16:32:34.034Z,9.82
2023-05-06T16:35:01.610Z,11.65
2023-05-06T16:37:29.406Z,7.25
2023-05-06T16:39:58.270Z,7.47
2023-05-06T16:42:25.789Z,8.07
2023-05-06T16:44:53.409Z,5.75
2023-05-06T16:47:23.531Z,8.75
2023-05-06T16:49:51.620Z,5.85
2023-05-06T16:52:19.234Z,7.82
2023-05-06T16:54:46.712Z,8.95
2023-05-06T16:57:15.560Z,6.90
2023-05-06T16:59:43.172Z,6.75
2023-05-06T17:02:10.873Z,7.07
2023-05-06T17:04:38.577Z,7.50
2023-05-06T17:07:06.226Z,10.13
2023-05-06T17:09:33.790Z,9.13
2023-05-06T17:12:02.440Z,8.48
2023-05-06T17:14:31.384Z,7.72
2023-05-06T17:17:02.136Z,6.35
2023-05-06T17:19:29.839Z,11.60
2023-05-06T17:21:57.885Z,7.95
2023-05-06T17:24:25.497Z,7.32
2023-05-06T17:26:53.062Z,8.27
2023-05-06T17:29:22.085Z,10.80
2023-05-06T17:31:50.980Z,7.65
2023-05-06T17:34:18.458Z,8.43
2023-05-06T17:36:45.963Z,10.55
2023-05-06T17:39:13.411Z,11.82
2023-05-06T17:41:41.048Z,7.57
2023-05-06T17:44:08.508Z,9.48
2023-05-06T17:46:36.271Z,10.63
2023-05-06T17:49:05.209Z,7.60
2023-05-06T17:51:32.758Z,8.45
2023-05-06T17:54:00.492Z,8.45
2023-05-06T17:56:28.138Z,7.65
2023-05-06T17:58:56.476Z,7.13
2023-05-06T18:01:24.169Z,6.03
2023-05-06T18:03:51.895Z,6.78
2023-05-06T18:06:20.723Z,6.35
2023-05-06T18:08:48.298Z,9.02
2023-05-06T18:11:16.193Z,7.15
2023-05-06T18:13:43.808Z,6.57
2023-05-06T18:16:11.329Z,7.55
2023-05-06T18:18:38.844Z,6.80
2023-05-06T18:21:06.462Z,8.35
2023-05-06T18:23:35.366Z,7.30
2023-05-06T18:26:04.992Z,8.45
2023-05-06T18:28:32.673Z,9.35
2023-05-06T18:31:00.353Z,10.27
2023-05-06T18:33:27.939Z,10.73
2023-05-06T18:35:55.645Z,8.57
2023-05-06T18:38:24.901Z,9.70
2023-05-06T18:40:54.469Z,9.75
2023-05-06T18:43:22.229Z,8.88
2023-05-06T18:45:49.750Z,13.05
2023-05-06T18:48:17.419Z,11.20
2023-05-06T18:50:45.018Z,11.07
2023-05-06T18:53:12.731Z,11.27
2023-05-06T18:55:40.211Z,9.57
2023-05-06T18:58:09.167Z,10.57
2023-05-06T19:00:36.908Z,11.35
2023-05-06T19:03:04.702Z,11.05
2023-05-06T19:05:32.470Z,9.93
2023-05-06T19:08:00.347Z,11.52
2023-05-06T19:10:28.040Z,10.57
2023-05-06T19:12:55.798Z,12.25
2023-05-06T19:15:24.793Z,13.63
2023-05-06T19:17:52.454Z,13.25
2023-05-06T19:20:20.064Z,15.63
2023-05-06T19:22:47.655Z,11.30
2023-05-06T19:25:15.332Z,12.02
2023-05-06T19:27:43.889Z,11.75
2023-05-06T19:30:12.115Z,13.98
2023-05-06T19:32:41.195Z,12.65
2023-05-06T19:35:09.664Z,11.85
2023-05-06T19:37:38.520Z,11.93
2023-05-06T19:40:07.729Z,11.52
2023-05-06T19:42:35.456Z,13.05
2023-05-06T19:45:07.846Z,14.02
2023-05-06T19:47:35.529Z,13.77
2023-05-06T19:50:04.938Z,15.10
2023-05-06T19:52:34.444Z,15.35
2023-05-06T19:55:03.438Z,16.50
2023-05-06T19:57:31.754Z,16.73
2023-05-06T20:00:00.183Z,15.55
2023-05-06T20:02:27.925Z,19.13
2023-05-06T20:04:55.967Z,17.48
2023-05-06T20:07:24.733Z,16.55
2023-05-06T20:09:55.537Z,17.77
2023-05-06T20:12:23.394Z,19.42
2023-05-06T20:14:50.983Z,18.25
2023-05-06T20:17:18.594Z,18.92
2023-05-06T20:19:46.738Z,23.50
2023-05-06T20:22:14.371Z,17.65
2023-05-06T20:24:44.006Z,20.30
2023-05-06T20:27:11.804Z,19.52
2023-05-06T20:29:39.410Z,20.95
2023-05-06T20:32:07.078Z,18.60
2023-05-06T20:34:34.761Z,22.27
2023-05-06T20:37:02.512Z,19.75
2023-05-06T20:39:30.032Z,18.25
2023-05-06T20:41:58.937Z,21.83
2023-05-06T20:44:26.349Z,23.35
2023-05-06T20:46:53.864Z,23.92
2023-05-06T20:49:21.389Z,24.13
2023-05-06T20:51:48.849Z,21.88
2023-05-06T20:54:16.353Z,25.88
2023-05-06T20:56:43.936Z,24.13
2023-05-06T20:59:12.734Z,26.83
2023-05-06T21:01:40.391Z,22.92
2023-05-06T21:04:07.906Z,30.45
2023-05-06T21:06:35.460Z,28.58
2023-05-06T21:09:02.917Z,26.95
2023-05-06T21:11:30.538Z,29.08
2023-05-06T21:13:58.873Z,26.80
2023-05-06T21:16:28.063Z,24.92
2023-05-06T21:18:55.535Z,25.77
2023-05-06T21:21:24.019Z,27.30
2023-05-06T21:23:51.604Z,29.25
2023-05-06T21:26:19.267Z,28.00
2023-05-06T21:28:51.077Z,27.13
2023-05-06T21:31:20.014Z,27.60
2023-05-06T21:33:48.897Z,28.88
2023-05-06T21:36:16.370Z,28.63
2023-05-06T21:38:43.817Z,34.50
2023-05-06T21:41:11.269Z,30.77
2023-05-06T21:43:38.727Z,30.75
2023-05-06T21:46:06.316Z,32.22
2023-05-06T21:48:33.784Z,30.05
2023-05-06T21:51:05.197Z,29.08
2023-05-06T21:53:32.715Z,30.20
2023-05-06T21:56:00.168Z,33.08
2023-05-06T21:58:27.758Z,33.90
2023-05-06T22:00:55.533Z,34.17
2023-05-06T22:03:23.096Z,31.92
2023-05-06T22:05:50.881Z,28.30
2023-05-06T22:08:19.649Z,35.25
2023-05-06T22:10:47.116Z,33.47
2023-05-06T22:13:14.640Z,32.40
2023-05-06T22:15:42.277Z,33.67
2023-05-06T22:18:10.224Z,34.35
2023-05-06T22:20:37.782Z,37.33
2023-05-06T22:23:05.438Z,39.38
2023-05-06T22:25:34.252Z,34.15
2023-05-06T22:28:01.789Z,32.13
2023-05-06T22:30:29.364Z,35.72
2023-05-06T22:32:56.853Z,32.63
2023-05-06T22:35:24.456Z,31.98
2023-05-06T22:37:52.048Z,32.30
2023-05-06T22:40:19.561Z,27.90
2023-05-06T22:42:48.349Z,30.83
2023-05-06T22:45:15.874Z,31.60
2023-05-06T22:47:43.490Z,26.17
2023-05-06T22:50:12.164Z,27.15
2023-05-06T22:52:39.746Z,31.17
2023-05-06T22:55:09.591Z,26.63
2023-05-06T22:57:37.494Z,33.45
2023-05-06T23:00:08.730Z,28.92
2023-05-06T23:02:36.372Z,19.33
2023-05-06T23:05:04.038Z,24.02
2023-05-06T23:07:31.549Z,30.85
2023-05-06T23:09:59.762Z,27.63
2023-05-06T23:12:28.057Z,28.77
2023-05-06T23:14:55.536Z,25.27
2023-05-06T23:17:24.417Z,35.35
2023-05-06T23:19:51.884Z,28.80
2023-05-06T23:22:19.498Z,30.20
2023-05-06T23:24:46.970Z,29.50
2023-05-06T23:27:14.464Z,29.83
2023-05-06T23:29:41.957Z,31.10
2023-05-06T23:32:09.436Z,30.83
2023-05-06T23:34:38.208Z,29.98
2023-05-06T23:37:05.659Z,26.70
2023-05-06T23:39:33.323Z,28.98
2023-05-06T23:42:02.181Z,24.88
2023-05-06T23:44:29.851Z,26.05
2023-05-06T23:46:57.416Z,27.35
2023-05-06T23:49:24.914Z,26.33
2023-05-06T23:51:53.756Z,25.48
2023-05-06T23:54:21.194Z,25.27
2023-05-06T23:56:48.992Z,26.10
2023-05-06T23:59:16.633Z,23.98
